Terminal Aerodrome Forecast
Issued by NWS

Home | Current Version | Previous Version | Text Only | Print | Product List | Glossary On
Versions: 1 2 3 4 5 6 7 8 9 10 11 12 13 14
911
FTUS46 KMTR 261232 AAA
TAFSJC
TAF AMD
KSJC 261232Z 2613/2712 VRB04KT P6SM SCT025
      TEMPO 2613/2616 BKN025
     FM261800 29007KT P6SM FEW020
     FM262100 31014G21KT P6SM FEW025
     FM270400 31007KT P6SM FEW020
     FM271000 VRB04KT P6SM BKN015=

USA.gov is the U.S. government's official web portal to all federal, state and local government web resources and services.